createdAt,value
2022-09-24T11:01:46.551Z,15.30
2022-09-24T11:01:56.618Z,14.30
2022-09-24T11:02:06.673Z,14.20
2022-09-24T11:02:16.891Z,14.90
2022-09-24T11:02:26.959Z,12.80
2022-09-24T11:02:37.135Z,11.70
2022-09-24T11:02:47.114Z,8.90
2022-09-24T11:02:57.102Z,11.10
2022-09-24T11:03:07.269Z,10.90
2022-09-24T11:03:17.422Z,11.80
2022-09-24T11:03:27.387Z,9.60
2022-09-24T11:03:37.486Z,10.50
2022-09-24T11:03:47.588Z,9.90
2022-09-24T11:03:57.706Z,10.10
2022-09-24T11:04:07.854Z,10.80
2022-09-24T11:04:17.817Z,10.20
2022-09-24T11:04:27.959Z,10.40
2022-09-24T11:04:39.009Z,10.20
2022-09-24T11:04:48.206Z,9.60
2022-09-24T11:04:58.216Z,10.80
2022-09-24T11:05:08.367Z,10.30
2022-09-24T11:05:18.454Z,10.30
2022-09-24T11:05:28.566Z,9.50
2022-09-24T11:05:38.647Z,9.80
2022-09-24T11:05:48.736Z,10.60
2022-09-24T11:05:58.837Z,10.90
2022-09-24T11:06:08.946Z,11.00
2022-09-24T11:06:19.068Z,10.90
2022-09-24T11:06:29.196Z,9.80
2022-09-24T11:06:39.276Z,9.70
2022-09-24T11:06:49.359Z,10.40
2022-09-24T11:06:59.508Z,9.10
2022-09-24T11:07:09.576Z,8.90
2022-09-24T11:07:19.674Z,8.10
2022-09-24T11:07:29.764Z,7.70
2022-09-24T11:07:39.846Z,7.50
2022-09-24T11:07:49.937Z,7.50
2022-09-24T11:07:59.976Z,7.80
2022-09-24T11:08:09.999Z,8.00
2022-09-24T11:08:20.105Z,8.60
2022-09-24T11:08:30.241Z,8.00
2022-09-24T11:08:40.316Z,7.70
2022-09-24T11:08:50.408Z,9.40
2022-09-24T11:09:00.547Z,10.00
2022-09-24T11:09:10.656Z,10.30
2022-09-24T11:09:20.748Z,8.30
2022-09-24T11:09:30.729Z,9.10
2022-09-24T11:09:40.852Z,9.10
2022-09-24T11:09:50.976Z,10.20
2022-09-24T11:10:03.239Z,8.50
2022-09-24T11:11:06.400Z,8.70
2022-09-24T11:11:16.520Z,8.50
2022-09-24T11:11:26.624Z,8.30
2022-09-24T11:11:36.741Z,9.30
2022-09-24T11:11:46.835Z,8.80
2022-09-24T11:11:56.952Z,10.10
2022-09-24T11:12:07.041Z,9.00
2022-09-24T11:12:17.194Z,9.50
2022-09-24T11:12:27.315Z,8.50
2022-09-24T11:12:37.431Z,8.40
2022-09-24T11:12:47.533Z,8.60
2022-09-24T11:12:57.654Z,8.40
2022-09-24T11:13:07.760Z,8.80
2022-09-24T11:13:17.845Z,8.50
2022-09-24T11:13:27.975Z,8.40
2022-09-24T11:13:38.064Z,8.90
2022-09-24T11:13:51.456Z,9.70
2022-09-24T11:13:58.192Z,10.40
2022-09-24T11:14:08.303Z,9.70
2022-09-24T11:14:18.442Z,10.80
2022-09-24T11:14:28.453Z,9.40
2022-09-24T11:14:38.571Z,8.70
2022-09-24T11:14:48.661Z,8.70
2022-09-24T11:14:58.774Z,8.70
2022-09-24T11:15:08.863Z,10.70
2022-09-24T11:15:18.973Z,10.30
2022-09-24T11:15:29.093Z,11.20
2022-09-24T11:15:39.240Z,10.20
2022-09-24T11:15:49.371Z,9.20
2022-09-24T11:15:59.555Z,9.90
2022-09-24T11:16:09.557Z,9.80
2022-09-24T11:16:19.576Z,10.10
2022-09-24T11:16:29.788Z,9.00
2022-09-24T11:16:39.753Z,8.70
2022-09-24T11:16:49.864Z,9.00
2022-09-24T11:16:59.953Z,8.60
2022-09-24T11:17:10.053Z,9.70
2022-09-24T11:17:20.212Z,9.60
2022-09-24T11:17:30.313Z,10.30
2022-09-24T11:17:40.424Z,9.50
2022-09-24T11:17:50.523Z,10.60
2022-09-24T11:18:00.630Z,10.10
2022-09-24T11:18:10.734Z,10.90
2022-09-24T11:18:20.850Z,11.00
2022-09-24T11:18:30.953Z,11.60
2022-09-24T11:18:41.071Z,10.30
2022-09-24T11:18:51.162Z,8.60
2022-09-24T11:19:01.295Z,8.90
2022-09-24T11:19:11.383Z,10.00
2022-09-24T11:19:21.479Z,10.90
2022-09-24T11:19:31.624Z,12.10
2022-09-24T11:19:41.722Z,11.40
2022-09-24T11:19:51.833Z,10.60
2022-09-24T11:20:01.935Z,8.90
2022-09-24T11:20:12.196Z,9.80
2022-09-24T11:20:22.132Z,11.00
2022-09-24T11:20:32.223Z,10.80
2022-09-24T11:20:42.324Z,9.60
2022-09-24T11:20:52.453Z,12.10
2022-09-24T11:21:02.562Z,11.50
2022-09-24T11:21:12.684Z,10.90
2022-09-24T11:21:22.835Z,7.50
2022-09-24T11:21:32.934Z,7.90
2022-09-24T11:21:43.063Z,8.10
2022-09-24T11:21:53.171Z,8.20
2022-09-24T11:22:03.267Z,7.10
2022-09-24T11:22:13.398Z,7.70
2022-09-24T11:22:23.521Z,7.40
2022-09-24T11:22:33.633Z,7.70
2022-09-24T11:22:43.744Z,8.80
2022-09-24T11:22:53.863Z,8.90
2022-09-24T11:23:04.033Z,9.20
2022-09-24T11:23:14.070Z,7.60
2022-09-24T11:23:24.172Z,7.50
2022-09-24T11:23:34.298Z,7.30
2022-09-24T11:23:44.413Z,8.00
2022-09-24T11:23:54.515Z,8.90
2022-09-24T11:24:04.651Z,8.40
2022-09-24T11:24:14.733Z,8.20
2022-09-24T11:24:24.843Z,7.70
2022-09-24T11:24:34.967Z,12.30
2022-09-24T11:24:45.101Z,12.40
2022-09-24T11:24:55.257Z,13.00
2022-09-24T11:25:05.372Z,8.40
2022-09-24T11:25:15.482Z,8.00
2022-09-24T11:25:25.633Z,8.20
2022-09-24T11:25:35.754Z,8.70
2022-09-24T11:25:45.864Z,9.20
2022-09-24T11:25:56.005Z,9.90
2022-09-24T11:26:06.084Z,9.00
2022-09-24T11:26:16.191Z,8.90
2022-09-24T11:26:26.391Z,8.20
2022-09-24T11:26:36.397Z,9.70
2022-09-24T11:26:46.533Z,9.30
2022-09-24T11:26:56.654Z,8.90
2022-09-24T11:27:06.754Z,8.90
2022-09-24T11:27:16.862Z,9.00
2022-09-24T11:27:26.982Z,10.70
2022-09-24T11:27:37.110Z,13.30
2022-09-24T11:27:47.241Z,14.00
2022-09-24T11:27:57.392Z,11.90
2022-09-24T11:28:07.493Z,9.20
2022-09-24T11:28:17.601Z,9.00
2022-09-24T11:28:27.713Z,9.20
2022-09-24T11:28:37.802Z,9.00
2022-09-24T11:28:47.973Z,7.90
2022-09-24T11:28:57.984Z,7.70
2022-09-24T11:29:08.108Z,7.60
2022-09-24T11:29:18.214Z,7.50
2022-09-24T11:29:31.113Z,7.40
2022-09-24T11:29:38.322Z,7.40
2022-09-24T11:29:48.456Z,8.60
2022-09-24T11:29:58.613Z,8.40
2022-09-24T11:30:08.724Z,8.70
2022-09-24T11:30:18.833Z,7.60
2022-09-24T11:30:28.934Z,7.60
2022-09-24T11:30:39.041Z,7.70
2022-09-24T11:30:49.224Z,8.30
2022-09-24T11:30:59.406Z,9.50
2022-09-24T11:31:09.470Z,8.80
2022-09-24T11:31:19.493Z,9.00
2022-09-24T11:31:29.501Z,8.80
2022-09-24T11:31:39.661Z,9.30
2022-09-24T11:31:49.657Z,8.40
2022-09-24T11:31:59.613Z,8.20
2022-09-24T11:32:09.760Z,8.20
2022-09-24T11:32:19.853Z,8.60
2022-09-24T11:32:30.004Z,8.30
2022-09-24T11:32:40.113Z,8.00
2022-09-24T11:32:50.203Z,7.40
2022-09-24T11:33:00.323Z,7.30
2022-09-24T11:33:10.425Z,7.40
2022-09-24T11:33:23.088Z,11.30
2022-09-24T11:33:30.700Z,12.30
2022-09-24T11:33:40.802Z,7.90
2022-09-24T11:33:50.922Z,8.20
2022-09-24T11:34:01.041Z,7.80
2022-09-24T11:34:11.194Z,7.10
2022-09-24T11:34:21.275Z,7.50
2022-09-24T11:34:31.390Z,6.70
2022-09-24T11:34:41.473Z,7.80
2022-09-24T11:34:51.575Z,8.20
2022-09-24T11:35:01.695Z,9.10
2022-09-24T11:35:11.822Z,9.70
2022-09-24T11:35:21.913Z,9.40
2022-09-24T11:35:32.024Z,8.20
2022-09-24T11:35:42.133Z,8.90
2022-09-24T11:35:52.243Z,8.80
2022-09-24T11:36:02.374Z,9.40
2022-09-24T11:36:12.496Z,8.10
2022-09-24T11:36:22.623Z,7.50
2022-09-24T11:36:32.730Z,6.90
2022-09-24T11:36:42.847Z,7.60
2022-09-24T11:36:53.024Z,8.80
2022-09-24T11:37:03.122Z,9.20
2022-09-24T11:37:13.213Z,10.00
2022-09-24T11:37:23.344Z,10.10
2022-09-24T11:37:33.443Z,10.10
2022-09-24T11:37:43.552Z,11.10
2022-09-24T11:37:53.664Z,10.10
2022-09-24T11:38:03.832Z,10.40
2022-09-24T11:38:13.941Z,8.10
2022-09-24T11:38:24.090Z,8.00
2022-09-24T11:38:34.191Z,7.40
2022-09-24T11:38:44.282Z,8.00
2022-09-24T11:38:54.423Z,8.30
2022-09-24T11:39:04.524Z,9.30
2022-09-24T11:39:14.633Z,9.30
2022-09-24T11:39:24.742Z,8.70
2022-09-24T11:39:34.850Z,8.10
2022-09-24T11:39:44.952Z,7.90
2022-09-24T11:39:55.041Z,8.20
2022-09-24T11:40:05.113Z,8.90
2022-09-24T11:40:15.245Z,9.40
2022-09-24T11:40:25.360Z,8.90
2022-09-24T11:40:35.493Z,7.70
2022-09-24T11:40:45.518Z,7.10
2022-09-24T11:40:55.514Z,7.30
2022-09-24T11:41:05.723Z,7.70
2022-09-24T11:41:15.693Z,8.70
2022-09-24T11:41:25.783Z,8.60
2022-09-24T11:41:35.883Z,8.00
2022-09-24T11:41:45.972Z,7.50
2022-09-24T11:41:56.053Z,8.60
2022-09-24T11:42:06.152Z,8.30
2022-09-24T11:42:16.246Z,8.20
2022-09-24T11:42:26.335Z,7.40
2022-09-24T11:42:36.422Z,8.20
2022-09-24T11:42:46.505Z,7.70
2022-09-24T11:42:56.581Z,8.20
2022-09-24T11:43:06.684Z,8.00
2022-09-24T11:43:16.761Z,7.80
2022-09-24T11:43:26.864Z,8.10
2022-09-24T11:43:36.923Z,7.40
2022-09-24T11:43:46.993Z,7.90
2022-09-24T11:43:57.072Z,8.00
2022-09-24T11:44:07.242Z,7.00
2022-09-24T11:44:17.324Z,7.70
2022-09-24T11:44:27.412Z,7.10
2022-09-24T11:44:37.485Z,8.10
2022-09-24T11:44:47.542Z,7.70
2022-09-24T11:44:57.605Z,7.80
2022-09-24T11:45:07.671Z,8.20
2022-09-24T11:45:17.751Z,9.80
2022-09-24T11:45:27.822Z,10.00
2022-09-24T11:45:37.901Z,10.10
2022-09-24T11:45:47.967Z,8.90
2022-09-24T11:45:58.033Z,9.00
2022-09-24T11:46:08.082Z,8.90
2022-09-24T11:46:18.244Z,8.90
2022-09-24T11:46:28.391Z,8.60
2022-09-24T11:46:38.574Z,7.80
2022-09-24T11:46:48.600Z,7.50
2022-09-24T11:46:58.629Z,7.90
2022-09-24T11:47:08.693Z,8.30
2022-09-24T11:47:18.836Z,8.10
2022-09-24T11:47:28.943Z,7.70
2022-09-24T11:47:39.042Z,7.30
2022-09-24T11:47:49.154Z,8.60
2022-09-24T11:47:59.251Z,8.60
2022-09-24T11:48:09.370Z,9.30
2022-09-24T11:48:19.486Z,7.70
2022-09-24T11:48:29.592Z,7.50
2022-09-24T11:48:39.702Z,6.90
2022-09-24T11:48:49.804Z,7.00
2022-09-24T11:48:59.914Z,7.00
2022-09-24T11:49:10.043Z,7.90
2022-09-24T11:49:20.149Z,8.90
2022-09-24T11:49:30.270Z,8.90
2022-09-24T11:49:40.391Z,8.10
2022-09-24T11:49:50.541Z,7.30
2022-09-24T11:50:00.629Z,6.60
2022-09-24T11:50:10.809Z,7.60
2022-09-24T11:50:20.790Z,6.90
2022-09-24T11:50:30.916Z,7.20
2022-09-24T11:50:45.074Z,7.00
2022-09-24T11:50:52.022Z,8.30
2022-09-24T11:51:02.113Z,9.00
2022-09-24T11:51:12.223Z,8.20
2022-09-24T11:51:22.333Z,8.00
2022-09-24T11:51:32.471Z,9.50
2022-09-24T11:51:42.552Z,9.70
2022-09-24T11:51:52.642Z,10.30
2022-09-24T11:52:02.762Z,10.00
2022-09-24T11:52:12.862Z,10.70
2022-09-24T11:52:22.993Z,9.40
2022-09-24T11:52:33.102Z,8.40
2022-09-24T11:52:43.200Z,6.70
2022-09-24T11:52:53.306Z,9.50
2022-09-24T11:53:03.389Z,9.70
2022-09-24T11:53:13.483Z,11.40
2022-09-24T11:53:23.600Z,9.80
2022-09-24T11:53:33.713Z,10.10
2022-09-24T11:53:43.791Z,9.00
2022-09-24T11:53:53.882Z,9.00
2022-09-24T11:54:03.993Z,7.90
2022-09-24T11:54:14.096Z,9.60
2022-09-24T11:54:24.172Z,8.50
2022-09-24T11:54:34.281Z,8.30
2022-09-24T11:54:44.373Z,8.00
2022-09-24T11:54:54.521Z,8.00
2022-09-24T11:55:04.613Z,7.90
2022-09-24T11:55:14.719Z,6.60
2022-09-24T11:55:24.829Z,6.70
2022-09-24T11:55:34.931Z,7.40
2022-09-24T11:55:45.020Z,8.00
2022-09-24T11:55:55.152Z,7.30
2022-09-24T11:56:08.309Z,6.10
2022-09-24T11:56:16.211Z,6.00
2022-09-24T11:56:26.314Z,6.50
2022-09-24T11:56:36.404Z,7.20
2022-09-24T11:56:46.494Z,7.50
2022-09-24T11:56:56.585Z,8.20
2022-09-24T11:57:06.681Z,8.30
2022-09-24T11:57:16.833Z,9.70
2022-09-24T11:57:26.943Z,10.10
2022-09-24T11:57:37.051Z,11.80
2022-09-24T11:57:47.154Z,10.90
2022-09-24T11:57:57.253Z,9.80
2022-09-24T11:58:07.351Z,8.00
2022-09-24T11:58:17.452Z,7.40
2022-09-24T11:58:27.561Z,7.20
2022-09-24T11:58:37.671Z,9.40
2022-09-24T11:58:47.802Z,10.30
2022-09-24T11:58:57.902Z,10.80
2022-09-24T11:59:08.042Z,9.70
2022-09-24T11:59:18.165Z,8.30
2022-09-24T11:59:28.269Z,9.90
2022-09-24T11:59:38.351Z,8.20
2022-09-24T11:59:48.452Z,8.60
2022-09-24T11:59:58.602Z,8.30
2022-09-24T12:00:08.704Z,9.50
2022-09-24T12:00:18.802Z,10.30
2022-09-24T12:00:28.902Z,8.80
2022-09-24T12:00:39.001Z,9.40
2022-09-24T12:00:49.102Z,8.20
2022-09-24T12:00:59.203Z,9.30
2022-09-24T12:01:09.302Z,7.90
2022-09-24T12:01:19.503Z,8.60
2022-09-24T12:01:29.513Z,9.70
2022-09-24T12:01:39.492Z,9.00
2022-09-24T12:01:49.645Z,8.80
2022-09-24T12:01:59.610Z,6.20
2022-09-24T12:02:09.769Z,6.50
2022-09-24T12:02:19.774Z,6.80
2022-09-24T12:02:29.956Z,8.20
2022-09-24T12:02:40.004Z,8.80
2022-09-24T12:02:50.191Z,8.70
2022-09-24T12:03:00.200Z,7.60
2022-09-24T12:03:10.255Z,6.90
2022-09-24T12:03:25.703Z,7.00
2022-09-24T12:03:31.250Z,7.90
2022-09-24T12:03:41.332Z,9.00
2022-09-24T12:03:51.450Z,9.50
2022-09-24T12:04:01.542Z,9.60
2022-09-24T12:04:11.708Z,8.50
2022-09-24T12:04:21.801Z,7.50
2022-09-24T12:04:31.903Z,7.80
2022-09-24T12:04:41.991Z,7.50
2022-09-24T12:04:52.099Z,7.90
2022-09-24T12:05:02.191Z,7.00
2022-09-24T12:05:12.302Z,8.50
2022-09-24T12:05:22.421Z,8.60
2022-09-24T12:05:32.555Z,9.30
2022-09-24T12:05:42.661Z,9.00
2022-09-24T12:05:52.751Z,8.40
2022-09-24T12:06:02.871Z,9.20
2022-09-24T12:06:12.979Z,8.50
2022-09-24T12:06:23.072Z,8.60
2022-09-24T12:06:33.172Z,7.10
2022-09-24T12:06:43.303Z,7.80
2022-09-24T12:06:53.400Z,7.80
2022-09-24T12:07:03.491Z,7.80
2022-09-24T12:07:13.590Z,7.10
2022-09-24T12:07:23.682Z,7.60
2022-09-24T12:07:33.782Z,8.10
2022-09-24T12:07:43.881Z,9.10
2022-09-24T12:07:53.962Z,9.30
2022-09-24T12:08:04.069Z,11.50
2022-09-24T12:08:14.162Z,10.70
2022-09-24T12:08:24.292Z,9.80
2022-09-24T12:08:34.391Z,7.30
2022-09-24T12:08:44.519Z,6.70
2022-09-24T12:08:54.602Z,6.80
2022-09-24T12:09:04.808Z,7.20
2022-09-24T12:09:14.801Z,7.90
2022-09-24T12:09:24.912Z,7.10
2022-09-24T12:09:35.000Z,7.10
2022-09-24T12:09:45.085Z,8.10
2022-09-24T12:09:55.172Z,8.80
2022-09-24T12:10:05.272Z,8.90
2022-09-24T12:10:15.392Z,9.30
2022-09-24T12:10:25.503Z,9.40
2022-09-24T12:10:35.665Z,10.10
2022-09-24T12:10:45.783Z,10.10
2022-09-24T12:10:55.875Z,8.50
2022-09-24T12:11:05.962Z,8.00
2022-09-24T12:11:16.043Z,6.80
2022-09-24T12:11:26.141Z,8.10
2022-09-24T12:11:36.241Z,8.10
2022-09-24T12:11:46.312Z,8.40
2022-09-24T12:11:56.399Z,7.60
2022-09-24T12:12:06.499Z,7.10
2022-09-24T12:12:16.595Z,7.00
2022-09-24T12:12:26.691Z,7.40
2022-09-24T12:12:36.802Z,7.80
2022-09-24T12:12:46.912Z,7.80
2022-09-24T12:12:57.054Z,7.60
2022-09-24T12:13:07.132Z,7.40
2022-09-24T12:13:17.222Z,7.50
2022-09-24T12:13:27.303Z,8.70
2022-09-24T12:13:37.404Z,7.90
2022-09-24T12:13:47.484Z,7.90
2022-09-24T12:13:57.562Z,7.10
2022-09-24T12:14:07.703Z,7.70
2022-09-24T12:14:17.795Z,7.00
2022-09-24T12:14:27.881Z,6.90
2022-09-24T12:14:38.001Z,6.20
2022-09-24T12:14:48.084Z,6.60
2022-09-24T12:14:58.183Z,6.90
2022-09-24T12:15:08.276Z,7.50
2022-09-24T12:15:18.429Z,7.70
2022-09-24T12:15:28.521Z,8.20
2022-09-24T12:15:38.649Z,7.70
2022-09-24T12:15:48.788Z,7.20
2022-09-24T12:15:58.933Z,6.40
2022-09-24T12:16:08.903Z,7.70
2022-09-24T12:16:19.062Z,7.40
2022-09-24T12:16:29.179Z,7.60
2022-09-24T12:16:39.366Z,7.20
2022-09-24T12:16:49.311Z,8.80
2022-09-24T12:16:59.412Z,8.10
2022-09-24T12:17:09.520Z,7.50
2022-09-24T12:17:19.631Z,7.10
2022-09-24T12:17:29.722Z,7.30
2022-09-24T12:17:39.835Z,8.20
2022-09-24T12:17:49.921Z,8.20
2022-09-24T12:18:00.011Z,8.80
2022-09-24T12:18:10.101Z,8.30
2022-09-24T12:18:20.193Z,8.50
2022-09-24T12:18:30.312Z,7.70
2022-09-24T12:18:40.410Z,9.00
2022-09-24T12:18:50.481Z,8.70
2022-09-24T12:19:00.581Z,8.80
2022-09-24T12:19:10.699Z,7.20
2022-09-24T12:19:20.785Z,7.10
2022-09-24T12:19:30.894Z,7.40
2022-09-24T12:19:40.982Z,7.20
2022-09-24T12:19:51.091Z,7.50
2022-09-24T12:20:01.199Z,7.10
2022-09-24T12:20:11.345Z,6.40
2022-09-24T12:20:21.434Z,6.60
2022-09-24T12:20:31.555Z,6.80
2022-09-24T12:20:41.672Z,6.90
2022-09-24T12:20:51.784Z,7.40
2022-09-24T12:21:01.899Z,8.10
2022-09-24T12:21:11.980Z,8.10
2022-09-24T12:21:22.061Z,7.00
2022-09-24T12:21:32.172Z,7.70
2022-09-24T12:21:42.253Z,7.50
2022-09-24T12:21:52.380Z,9.50
2022-09-24T12:22:02.484Z,8.70
2022-09-24T12:22:12.589Z,8.90
2022-09-24T12:22:22.683Z,7.10
2022-09-24T12:22:32.811Z,7.30
2022-09-24T12:22:42.899Z,8.50
2022-09-24T12:22:53.034Z,8.70
2022-09-24T12:23:03.184Z,9.80
2022-09-24T12:23:13.345Z,8.70
2022-09-24T12:23:23.466Z,8.30
2022-09-24T12:23:33.571Z,7.00
2022-09-24T12:23:43.651Z,7.00
2022-09-24T12:24:02.199Z,7.20
2022-09-24T12:24:04.783Z,7.40
2022-09-24T12:24:14.984Z,8.30
2022-09-24T12:24:24.883Z,8.80
2022-09-24T12:24:34.992Z,9.90
2022-09-24T12:24:45.094Z,8.70
2022-09-24T12:24:55.211Z,7.80
2022-09-24T12:25:05.312Z,8.30
2022-09-24T12:25:15.420Z,9.20
2022-09-24T12:25:25.510Z,9.60
2022-09-24T12:25:35.651Z,7.80
2022-09-24T12:25:45.763Z,7.10
2022-09-24T12:25:55.844Z,7.90
2022-09-24T12:26:05.980Z,7.80
2022-09-24T12:26:16.099Z,9.40
2022-09-24T12:26:26.220Z,8.70
2022-09-24T12:26:36.329Z,8.30
2022-09-24T12:26:46.441Z,8.30
2022-09-24T12:26:56.547Z,8.80
2022-09-24T12:27:06.631Z,9.50
2022-09-24T12:27:16.751Z,8.70
2022-09-24T12:27:26.853Z,7.90
2022-09-24T12:27:37.030Z,6.70
2022-09-24T12:27:47.142Z,6.50
2022-09-24T12:27:57.242Z,6.40
2022-09-24T12:28:07.351Z,7.40
2022-09-24T12:28:17.470Z,7.60
2022-09-24T12:28:27.591Z,7.10
2022-09-24T12:28:37.700Z,7.20
2022-09-24T12:28:47.831Z,7.30
2022-09-24T12:28:57.842Z,7.10
2022-09-24T12:29:07.943Z,7.20
2022-09-24T12:29:18.051Z,7.70
2022-09-24T12:29:28.144Z,8.60
2022-09-24T12:29:38.270Z,8.20
2022-09-24T12:29:48.371Z,8.30
2022-09-24T12:29:58.510Z,7.80
2022-09-24T12:30:08.616Z,9.90
2022-09-24T12:30:18.761Z,10.60
2022-09-24T12:30:28.881Z,10.10
2022-09-24T12:30:39.003Z,9.10
2022-09-24T12:30:49.140Z,8.10
2022-09-24T12:30:59.183Z,9.20
2022-09-24T12:31:12.277Z,9.80
2022-09-24T12:31:19.321Z,9.40
2022-09-24T12:31:29.381Z,8.70
2022-09-24T12:31:39.540Z,7.80
2022-09-24T12:31:49.561Z,7.90
2022-09-24T12:31:59.509Z,7.70
2022-09-24T12:32:09.632Z,8.00
2022-09-24T12:32:19.741Z,10.00
2022-09-24T12:32:29.860Z,9.70
2022-09-24T12:32:39.973Z,10.40
2022-09-24T12:32:50.082Z,8.40
2022-09-24T12:33:00.200Z,9.00
2022-09-24T12:33:10.313Z,9.20
2022-09-24T12:33:20.400Z,9.10
2022-09-24T12:33:30.513Z,8.10
2022-09-24T12:33:40.619Z,8.40
2022-09-24T12:33:50.741Z,8.70
2022-09-24T12:34:00.839Z,9.30
2022-09-24T12:34:11.005Z,8.50
2022-09-24T12:34:21.123Z,8.60
2022-09-24T12:34:31.227Z,8.90
2022-09-24T12:34:41.333Z,8.60
2022-09-24T12:34:51.419Z,8.10
2022-09-24T12:35:01.509Z,7.90
2022-09-24T12:35:11.621Z,7.60
2022-09-24T12:35:21.733Z,9.00
2022-09-24T12:35:31.838Z,9.10
2022-09-24T12:35:41.961Z,10.70
2022-09-24T12:35:52.071Z,8.80
2022-09-24T12:36:02.203Z,8.70
2022-09-24T12:36:12.302Z,8.40
2022-09-24T12:36:22.414Z,9.10
2022-09-24T12:36:32.511Z,8.80
2022-09-24T12:36:42.680Z,8.30
2022-09-24T12:36:56.839Z,7.90
2022-09-24T12:37:02.879Z,7.60
2022-09-24T12:37:12.972Z,8.00
2022-09-24T12:37:23.081Z,8.60
2022-09-24T12:37:33.181Z,9.20
2022-09-24T12:37:43.290Z,8.50
2022-09-24T12:37:53.404Z,7.70
2022-09-24T12:38:03.500Z,8.80
2022-09-24T12:38:13.645Z,9.40
2022-09-24T12:38:23.760Z,10.30
2022-09-24T12:38:33.882Z,10.10
2022-09-24T12:38:43.999Z,10.50
2022-09-24T12:38:54.099Z,11.80
2022-09-24T12:39:04.207Z,11.00
2022-09-24T12:39:14.321Z,10.90
2022-09-24T12:39:24.421Z,9.70
2022-09-24T12:39:34.521Z,9.80
2022-09-24T12:39:44.652Z,9.20
2022-09-24T12:39:54.759Z,9.30
2022-09-24T12:40:04.859Z,8.30
2022-09-24T12:40:14.976Z,9.30
2022-09-24T12:40:25.095Z,9.10
2022-09-24T12:40:35.158Z,9.10
2022-09-24T12:40:45.224Z,8.50
2022-09-24T12:40:55.221Z,8.50
2022-09-24T12:41:05.161Z,8.50
2022-09-24T12:41:15.251Z,7.70
2022-09-24T12:41:25.381Z,7.50
2022-09-24T12:41:35.421Z,8.70
2022-09-24T12:41:45.530Z,9.70
2022-09-24T12:41:55.631Z,9.80
2022-09-24T12:42:05.736Z,8.90
2022-09-24T12:42:15.841Z,8.90
2022-09-24T12:42:25.970Z,8.60
2022-09-24T12:42:36.080Z,10.20
2022-09-24T12:42:46.200Z,9.80
2022-09-24T12:42:56.330Z,9.20
2022-09-24T12:43:06.440Z,7.80
2022-09-24T12:43:16.549Z,7.50
2022-09-24T12:43:26.665Z,7.80
2022-09-24T12:43:36.769Z,8.80
2022-09-24T12:43:46.963Z,7.60
2022-09-24T12:43:57.101Z,7.90
2022-09-24T12:44:07.230Z,7.80
2022-09-24T12:44:21.740Z,9.70
2022-09-24T12:44:27.309Z,9.50
2022-09-24T12:44:37.409Z,11.30
2022-09-24T12:44:47.520Z,10.40
2022-09-24T12:44:57.621Z,9.80
2022-09-24T12:45:07.780Z,8.40
2022-09-24T12:45:18.880Z,8.10
2022-09-24T12:45:27.961Z,9.60
2022-09-24T12:45:38.111Z,9.10
2022-09-24T12:45:48.253Z,9.60
2022-09-24T12:45:58.362Z,7.50
2022-09-24T12:46:08.528Z,7.40
2022-09-24T12:46:18.755Z,6.90
2022-09-24T12:46:28.773Z,7.20
2022-09-24T12:46:38.997Z,7.50
2022-09-24T12:46:48.984Z,7.80
2022-09-24T12:46:59.171Z,7.80
2022-09-24T12:47:09.120Z,9.70
2022-09-24T12:47:19.244Z,10.30
2022-09-24T12:47:29.357Z,10.10
2022-09-24T12:47:39.448Z,8.60
2022-09-24T12:47:49.541Z,8.10
2022-09-24T12:47:59.631Z,7.60
2022-09-24T12:48:09.722Z,7.20
2022-09-24T12:48:19.841Z,7.30
2022-09-24T12:48:29.929Z,7.80
2022-09-24T12:48:40.031Z,7.90
2022-09-24T12:48:50.130Z,7.20
2022-09-24T12:49:00.216Z,6.90
2022-09-24T12:49:10.361Z,7.90
2022-09-24T12:49:20.380Z,8.60
2022-09-24T12:49:30.481Z,10.70
2022-09-24T12:49:40.591Z,10.50
2022-09-24T12:49:50.719Z,11.10
2022-09-24T12:50:00.829Z,10.60
2022-09-24T12:50:10.941Z,11.50
2022-09-24T12:50:20.941Z,11.30
2022-09-24T12:50:31.059Z,11.00
2022-09-24T12:50:41.184Z,9.90
2022-09-24T12:50:51.271Z,9.50
2022-09-24T12:51:01.411Z,9.90
2022-09-24T12:51:11.541Z,10.30
2022-09-24T12:51:21.671Z,23.20
2022-09-24T12:51:31.789Z,35.30
2022-09-24T12:51:41.922Z,52.80
2022-09-24T12:51:52.051Z,52.60
2022-09-24T12:52:02.051Z,50.60
2022-09-24T12:52:12.201Z,36.30
2022-09-24T12:52:22.329Z,27.10
2022-09-24T12:52:32.434Z,19.30
2022-09-24T12:52:42.542Z,17.90
2022-09-24T12:52:52.661Z,15.60
2022-09-24T12:53:02.770Z,14.10
2022-09-24T12:53:12.881Z,12.40
2022-09-24T12:53:22.991Z,11.60
2022-09-24T12:53:33.101Z,10.70
2022-09-24T12:53:43.232Z,10.80
2022-09-24T12:53:53.321Z,11.50
2022-09-24T12:54:03.421Z,12.20
2022-09-24T12:54:13.539Z,13.30
2022-09-24T12:54:23.643Z,14.30
2022-09-24T12:54:33.739Z,14.20
2022-09-24T12:54:43.840Z,12.80
2022-09-24T12:54:53.931Z,15.50
2022-09-24T12:55:04.053Z,16.30
2022-09-24T12:55:14.171Z,17.30
2022-09-24T12:55:24.280Z,14.50
2022-09-24T12:55:34.390Z,13.90
2022-09-24T12:55:44.518Z,12.90
2022-09-24T12:55:54.621Z,16.40
2022-09-24T12:56:04.722Z,16.10
2022-09-24T12:56:14.830Z,15.70
2022-09-24T12:56:24.923Z,11.70
2022-09-24T12:56:35.056Z,11.80
2022-09-24T12:56:45.132Z,11.20
2022-09-24T12:56:55.240Z,10.90
2022-09-24T12:57:05.330Z,9.90
2022-09-24T12:57:15.430Z,9.00
2022-09-24T12:57:26.281Z,9.00
2022-09-24T12:57:35.552Z,9.10
2022-09-24T12:57:45.682Z,10.20
2022-09-24T12:57:55.778Z,10.40
2022-09-24T12:58:05.884Z,12.60
2022-09-24T12:58:15.980Z,11.90
2022-09-24T12:58:26.081Z,11.70
2022-09-24T12:58:36.181Z,9.70
2022-09-24T12:58:46.271Z,9.30
2022-09-24T12:58:56.370Z,9.50
2022-09-24T12:59:06.481Z,9.50
2022-09-24T12:59:16.581Z,11.00
2022-09-24T12:59:26.682Z,10.30
2022-09-24T12:59:36.771Z,9.70
2022-09-24T12:59:46.870Z,8.80
2022-09-24T12:59:56.943Z,8.70
2022-09-24T13:00:07.027Z,8.30
2022-09-24T13:00:17.100Z,8.70
2022-09-24T13:00:27.200Z,9.70
2022-09-24T13:00:37.290Z,11.30
2022-09-24T13:00:47.397Z,10.00
2022-09-24T13:00:57.481Z,9.90
2022-09-24T13:01:07.562Z,8.80
2022-09-24T13:01:17.686Z,9.30
2022-09-24T13:01:27.904Z,8.50
2022-09-24T13:01:37.971Z,7.50
2022-09-24T13:01:48.100Z,7.60
2022-09-24T13:01:58.201Z,7.70
2022-09-24T13:02:08.233Z,8.20
2022-09-24T13:02:18.351Z,7.60
2022-09-24T13:02:28.423Z,7.90
2022-09-24T13:02:38.496Z,8.60
2022-09-24T13:02:48.660Z,9.70
2022-09-24T13:02:58.552Z,10.60
2022-09-24T13:03:08.698Z,10.60
2022-09-24T13:03:18.769Z,10.20
2022-09-24T13:03:28.681Z,9.50
2022-09-24T13:03:42.141Z,8.30
2022-09-24T13:03:49.763Z,7.60
2022-09-24T13:03:59.860Z,7.50
2022-09-24T13:04:10.016Z,7.40
2022-09-24T13:04:20.069Z,7.40
2022-09-24T13:04:30.173Z,7.40
2022-09-24T13:04:40.261Z,7.70
2022-09-24T13:04:50.370Z,8.50
2022-09-24T13:05:00.481Z,7.90
2022-09-24T13:05:10.590Z,9.30
2022-09-24T13:05:20.719Z,9.00
2022-09-24T13:05:30.821Z,9.20
2022-09-24T13:05:40.929Z,9.00
2022-09-24T13:05:51.020Z,8.40
2022-09-24T13:06:01.185Z,8.50
2022-09-24T13:06:11.271Z,7.20
2022-09-24T13:06:21.378Z,8.40
2022-09-24T13:06:31.473Z,8.70
2022-09-24T13:06:41.567Z,8.60
2022-09-24T13:06:51.668Z,7.50
2022-09-24T13:07:01.760Z,7.10
2022-09-24T13:07:11.869Z,6.70
2022-09-24T13:07:21.972Z,7.30
2022-09-24T13:07:32.065Z,8.40
2022-09-24T13:07:42.150Z,9.70
2022-09-24T13:07:52.238Z,9.10
2022-09-24T13:08:02.330Z,7.60
2022-09-24T13:08:12.428Z,7.50
2022-09-24T13:08:22.514Z,7.60
2022-09-24T13:08:32.607Z,7.70
2022-09-24T13:08:42.700Z,7.60
2022-09-24T13:08:52.789Z,8.60
2022-09-24T13:09:02.879Z,8.40
2022-09-24T13:09:12.980Z,8.80
2022-09-24T13:09:25.759Z,8.00
2022-09-24T13:09:33.186Z,8.80
2022-09-24T13:09:43.110Z,9.20
2022-09-24T13:09:53.228Z,9.70
2022-09-24T13:10:03.311Z,9.30
2022-09-24T13:10:13.391Z,10.30
2022-09-24T13:10:23.503Z,9.30
2022-09-24T13:10:33.594Z,9.10
2022-09-24T13:10:43.669Z,8.90
2022-09-24T13:10:53.790Z,9.80
2022-09-24T13:11:03.900Z,9.70
2022-09-24T13:11:13.998Z,8.10
2022-09-24T13:11:24.110Z,7.10
2022-09-24T13:11:34.211Z,8.10
2022-09-24T13:11:44.311Z,8.80
2022-09-24T13:11:54.421Z,9.40
2022-09-24T13:12:04.510Z,9.10
2022-09-24T13:12:14.610Z,8.50
2022-09-24T13:12:24.710Z,7.80
2022-09-24T13:12:34.810Z,7.40
2022-09-24T13:12:44.902Z,8.30
2022-09-24T13:12:55.010Z,10.30
2022-09-24T13:13:05.109Z,11.20
2022-09-24T13:13:15.229Z,10.10
2022-09-24T13:13:25.329Z,8.80
2022-09-24T13:13:35.429Z,8.50
2022-09-24T13:13:45.520Z,8.40
2022-09-24T13:13:55.620Z,8.20
2022-09-24T13:14:05.779Z,8.40
2022-09-24T13:14:15.770Z,8.10
2022-09-24T13:14:25.768Z,7.90
2022-09-24T13:14:35.867Z,8.10
2022-09-24T13:14:45.969Z,8.00
2022-09-24T13:14:56.082Z,9.60
2022-09-24T13:15:06.190Z,9.40
2022-09-24T13:15:16.320Z,10.20
2022-09-24T13:15:28.253Z,8.90
2022-09-24T13:15:36.618Z,9.70
2022-09-24T13:15:46.645Z,8.70
2022-09-24T13:15:56.796Z,8.50
2022-09-24T13:16:06.930Z,8.90
2022-09-24T13:16:16.944Z,9.90